createdAt,value
2019-06-10T00:00:01.444Z,19.3
2019-06-10T00:05:05.294Z,19.3
2019-06-10T00:10:06.068Z,19.3
2019-06-10T00:15:07.880Z,19.2
2019-06-10T00:20:11.107Z,19.2
2019-06-10T00:25:12.736Z,19.2
2019-06-10T00:30:15.198Z,19.2
2019-06-10T00:35:17.713Z,19.2
2019-06-10T00:40:21.433Z,19.2
2019-06-10T00:45:22.514Z,19.1
2019-06-10T00:50:24.926Z,19.1
2019-06-10T00:55:27.415Z,19.1
2019-06-10T01:00:31.736Z,19
2019-06-10T01:05:32.260Z,19
2019-06-10T01:10:34.811Z,19
2019-06-10T01:15:37.190Z,19
2019-06-10T01:20:41.199Z,19
2019-06-10T01:25:42.648Z,19
2019-06-10T01:30:44.460Z,18.9
2019-06-10T01:35:46.895Z,18.9
2019-06-10T01:40:50.899Z,18.9
2019-06-10T01:45:51.795Z,18.9
2019-06-10T01:50:54.226Z,18.9
2019-06-10T01:55:56.691Z,18.9
2019-06-10T02:01:01.262Z,18.8
2019-06-10T02:06:01.708Z,18.7
2019-06-10T02:11:04.022Z,18.7
2019-06-10T02:16:06.509Z,18.7
2019-06-10T02:21:11.493Z,18.7
2019-06-10T02:26:13.572Z,18.7
2019-06-10T02:31:17.161Z,18.7
2019-06-10T02:36:20.016Z,18.6
2019-06-10T02:41:23.806Z,18.6
2019-06-10T02:46:27.793Z,18.6
2019-06-10T02:51:30.139Z,18.5
2019-06-10T02:56:30.660Z,18.5
2019-06-10T03:01:32.747Z,18.4
2019-06-10T03:06:36.104Z,18.4
2019-06-10T03:11:36.870Z,18.4
2019-06-10T03:16:35.745Z,18.4
2019-06-10T03:21:38.208Z,18.3
2019-06-10T03:31:47.522Z,18.3
2019-06-10T03:36:45.512Z,18.3
2019-06-10T03:41:47.994Z,18.4
2019-06-10T03:46:52.319Z,18.3
2019-06-10T03:56:55.352Z,18.4
2019-06-10T04:01:57.698Z,18.4
2019-06-10T04:07:03.561Z,18.4
2019-06-10T04:12:02.698Z,18.4
2019-06-10T04:17:05.032Z,18.4
2019-06-10T04:22:07.483Z,18.4
2019-06-10T04:27:12.120Z,18.4
2019-06-10T04:32:12.429Z,18.4
2019-06-10T04:37:14.875Z,18.4
2019-06-10T04:42:18.326Z,18.5
2019-06-10T04:47:21.085Z,18.5
2019-06-10T04:52:23.563Z,18.5
2019-06-10T04:57:26.415Z,18.6
2019-06-10T05:02:28.463Z,18.6
2019-06-10T05:07:34.059Z,18.7
2019-06-10T05:12:32.701Z,18.8
2019-06-10T05:17:34.541Z,18.9
2019-06-10T05:22:36.811Z,18.9
2019-06-10T05:27:39.241Z,19
2019-06-10T05:32:43.169Z,19.1
2019-06-10T05:37:44.102Z,19.2
2019-06-10T05:42:46.541Z,19.3
2019-06-10T05:47:49.010Z,19.5
2019-06-10T05:52:52.011Z,19.6
2019-06-10T05:57:53.897Z,19.8
2019-06-10T06:02:56.310Z,19.9
2019-06-10T06:08:04.264Z,20.2
2019-06-10T06:13:03.047Z,20.4
2019-06-10T06:18:09.335Z,20.7
2019-06-10T06:23:08.826Z,20.8
2019-06-10T06:28:08.563Z,20.9
2019-06-10T06:33:13.330Z,21
2019-06-10T06:38:13.407Z,21.1
2019-06-10T06:43:15.839Z,21.1
2019-06-10T06:48:18.293Z,21.2
2019-06-10T06:53:29.786Z,21.4
2019-06-10T06:58:23.302Z,21.4
2019-06-10T07:03:25.606Z,21.4
2019-06-10T07:08:28.117Z,21.4
2019-06-10T07:13:31.277Z,21.5
2019-06-10T07:18:37.532Z,21.6
2019-06-10T07:23:37.822Z,21.6
2019-06-10T07:28:40.248Z,21.6
2019-06-10T07:33:42.792Z,21.6
2019-06-10T07:38:48.081Z,21.7
2019-06-10T07:43:49.374Z,21.8
2019-06-10T07:48:48.309Z,21.8
2019-06-10T07:53:52.300Z,22
2019-06-10T07:58:53.038Z,22
2019-06-10T08:03:54.911Z,22.1
2019-06-10T08:08:57.362Z,22.2
2019-06-10T08:13:59.815Z,22.4
2019-06-10T08:19:29.244Z,22.5
2019-06-10T08:24:04.809Z,22.7
2019-06-10T08:29:07.171Z,22.6
2019-06-10T08:34:09.591Z,22.7
2019-06-10T08:39:15.732Z,22.8
2019-06-10T08:44:14.525Z,22.8
2019-06-10T08:49:16.886Z,22.8
2019-06-10T08:54:19.377Z,22.9
2019-06-10T08:59:23.052Z,23.1
2019-06-10T09:04:24.388Z,23.2
2019-06-10T09:09:26.773Z,23.4
2019-06-10T09:14:29.120Z,23.5
2019-06-10T09:19:33.161Z,23.7
2019-06-10T09:24:34.208Z,23.9
2019-06-10T09:29:36.502Z,24.1
2019-06-10T09:34:40.148Z,24.3
2019-06-10T09:39:47.111Z,24.3
2019-06-10T09:44:46.797Z,24.3
2019-06-10T09:49:49.125Z,24.2
2019-06-10T09:54:52.543Z,24.1
2019-06-10T09:59:55.791Z,24
2019-06-10T10:04:58.040Z,23.9
2019-06-10T10:09:56.961Z,23.9
2019-06-10T10:20:03.162Z,24.1
2019-06-10T10:25:03.388Z,24.2
2019-06-10T10:30:05.777Z,24.4
2019-06-10T10:35:08.173Z,24.4
2019-06-10T10:40:12.276Z,24.5
2019-06-10T10:45:13.869Z,24.6
2019-06-10T10:50:15.496Z,24.9
2019-06-10T10:55:18.087Z,25
2019-06-10T11:00:22.503Z,25.2
2019-06-10T11:05:23.192Z,25.4
2019-06-10T11:10:25.240Z,25.6
2019-06-10T11:15:27.700Z,25.9
2019-06-10T11:20:30.844Z,26.2
2019-06-10T11:25:33.180Z,26.4
2019-06-10T11:30:35.032Z,26.4
2019-06-10T11:35:37.506Z,26.4
2019-06-10T11:40:42.654Z,26.5
2019-06-10T11:45:48.248Z,26.7
2019-06-10T11:50:44.962Z,27
2019-06-10T11:55:47.620Z,27.6
2019-06-10T12:00:50.962Z,27.8
2019-06-10T12:05:55.459Z,28
2019-06-10T12:10:58.376Z,27.7
2019-06-10T12:21:03.519Z,26.5
2019-06-10T12:26:04.715Z,26.3
2019-06-10T12:31:06.983Z,26.2
2019-06-10T12:36:07.531Z,26
2019-06-10T12:41:11.003Z,25.8
2019-06-10T12:46:12.696Z,25.8
2019-06-10T12:51:14.222Z,26.1
2019-06-10T12:56:16.611Z,26.5
2019-06-10T13:01:19.011Z,26.8
2019-06-10T13:06:23.474Z,26.6
2019-06-10T13:11:23.860Z,26.6
2019-06-10T13:16:26.293Z,26.4
2019-06-10T13:21:28.907Z,26.2
2019-06-10T13:26:32.959Z,26.1
2019-06-10T13:31:33.833Z,26.7
2019-06-10T13:36:36.125Z,27.5
2019-06-10T13:41:43.719Z,27.9
2019-06-10T13:46:42.495Z,27.8
2019-06-10T13:51:44.032Z,27.8
2019-06-10T13:56:47.610Z,28
2019-06-10T14:01:48.322Z,28.5
2019-06-10T14:06:56.674Z,29.2
2019-06-10T14:11:53.164Z,29.7
2019-06-10T14:16:55.595Z,30
2019-06-10T14:21:58.096Z,30.7
2019-06-10T14:27:02.846Z,31.3
2019-06-10T14:32:04.040Z,31
2019-06-10T14:37:05.783Z,31
2019-06-10T14:42:08.584Z,30.9
2019-06-10T14:47:11.497Z,31.5
2019-06-10T14:52:14.898Z,32.6
2019-06-10T14:57:16.690Z,32.6
2019-06-10T15:02:17.621Z,32
2019-06-10T15:07:20.892Z,31.6
2019-06-10T15:12:22.844Z,31.8
2019-06-10T15:17:24.948Z,33.4
2019-06-10T15:22:27.333Z,33.6
2019-06-10T15:27:31.356Z,33.7
2019-06-10T15:32:34.701Z,34.4
2019-06-10T15:37:34.714Z,34.4
2019-06-10T15:42:37.216Z,34.2
2019-06-10T15:47:39.543Z,33.8
2019-06-10T15:52:43.117Z,33.7
2019-06-10T15:57:46.433Z,34
2019-06-10T16:02:46.895Z,34.4
2019-06-10T16:07:49.404Z,33.8
2019-06-10T16:12:52.703Z,32.2
2019-06-10T16:17:54.242Z,30.7
2019-06-10T16:22:56.653Z,29.6
2019-06-10T16:27:59.162Z,28.8
2019-06-10T16:33:02.844Z,28.1
2019-06-10T16:38:03.996Z,27.6
2019-06-10T16:43:06.419Z,27.1
2019-06-10T16:48:09.041Z,26.7
2019-06-10T16:53:13.602Z,26.5
2019-06-10T16:58:13.752Z,26.2
2019-06-10T17:03:18.030Z,26
2019-06-10T17:08:19.945Z,25.9
2019-06-10T17:13:23.550Z,25.9
2019-06-10T17:18:25.242Z,25.9
2019-06-10T17:23:30.675Z,25.8
2019-06-10T17:28:31.141Z,25.6
2019-06-10T17:33:34.585Z,25.5
2019-06-10T17:38:33.303Z,25.4
2019-06-10T17:43:35.814Z,25.3
2019-06-10T17:48:38.174Z,25.2
2019-06-10T17:53:42.669Z,25
2019-06-10T17:58:51.444Z,24.7
2019-06-10T18:03:45.541Z,24.6
2019-06-10T18:08:47.960Z,24.4
2019-06-10T18:13:50.379Z,24.2
2019-06-10T18:18:52.886Z,24.1
2019-06-10T18:23:55.251Z,23.9
2019-06-10T18:29:04.693Z,23.8
2019-06-10T18:34:02.346Z,23.7
2019-06-10T18:39:03.014Z,23.6
2019-06-10T18:44:18.719Z,23.5
2019-06-10T18:49:07.521Z,23.5
2019-06-10T18:54:09.909Z,23.4
2019-06-10T18:59:17.545Z,23.4
2019-06-10T19:04:14.828Z,23.3
2019-06-10T19:09:17.230Z,23.1
2019-06-10T19:14:19.670Z,22.9
2019-06-10T19:19:22.879Z,22.6
2019-06-10T19:24:24.563Z,22.2
2019-06-10T19:29:33.338Z,22
2019-06-10T19:34:29.440Z,21.9
2019-06-10T19:39:35.010Z,21.7
2019-06-10T19:44:35.739Z,21.5
2019-06-10T19:49:36.851Z,21.2
2019-06-10T19:54:39.316Z,21.1
2019-06-10T19:59:55.697Z,21
2019-06-10T20:04:45.635Z,20.9
2019-06-10T20:09:46.548Z,20.7
2019-06-10T20:14:48.951Z,20.4
2019-06-10T20:24:53.891Z,20.2
2019-06-10T20:30:06.882Z,20.2
2019-06-10T20:34:58.788Z,20.2
2019-06-10T20:40:03.543Z,20.3
2019-06-10T20:45:04.951Z,20.2
2019-06-10T20:50:06.174Z,20.2
2019-06-10T20:55:08.491Z,20.2
2019-06-10T21:00:22.090Z,20.2
2019-06-10T21:05:13.495Z,20.1
2019-06-10T21:10:16.920Z,20
2019-06-10T21:15:18.263Z,20
2019-06-10T21:25:23.409Z,19.9
2019-06-10T21:30:36.901Z,19.8
2019-06-10T21:35:28.037Z,19.6
2019-06-10T21:40:32.825Z,19.5
2019-06-10T21:45:32.996Z,19.4
2019-06-10T21:50:35.350Z,19.3
2019-06-10T21:55:37.861Z,19.3
2019-06-10T22:00:52.560Z,19.2
2019-06-10T22:05:44.172Z,19.3
2019-06-10T22:10:45.888Z,19.3
2019-06-10T22:15:48.338Z,19.1
2019-06-10T22:20:51.375Z,19
2019-06-10T22:25:54.187Z,19.1
2019-06-10T22:31:11.952Z,19.2
2019-06-10T22:35:57.520Z,19.1
2019-06-10T22:40:59.776Z,19
2019-06-10T22:51:04.697Z,19
2019-06-10T22:56:07.155Z,19
2019-06-10T23:01:12.449Z,19
2019-06-10T23:06:12.548Z,18.9
2019-06-10T23:11:14.469Z,18.9
2019-06-10T23:16:16.847Z,18.8
2019-06-10T23:21:19.450Z,18.8
2019-06-10T23:26:22.536Z,18.7
2019-06-10T23:31:24.174Z,18.6
2019-06-10T23:36:26.618Z,18.5
2019-06-10T23:41:29.098Z,18.4
2019-06-10T23:46:32.019Z,18.4
2019-06-10T23:51:33.946Z,18.4
2019-06-10T23:56:36.381Z,18.4
